Time;durP1;ratioP1;P1;durP2;ratioP2;P2;SDS_P1;SDS_P2;PMS_P1;PMS_P2;Temp;Humidity;BMP_temperature;BMP_pressure;BME280_temperature;BME280_humidity;BME280_pressure;Samples;Min_cycle;Max_cycle;Signal;HPM_P1;HPM_P2
2024/04/07 00:00:23;;;;;;;0.20;0.20;;;;;;;20.69;46.66;101496.41;5031914;28;20521;-92
2024/04/07 00:02:52;;;;;;;0.10;0.10;;;;;;;20.63;46.63;101495.06;5031130;28;20037;-92
2024/04/07 00:05:19;;;;;;;0.10;0.10;;;;;;;20.58;46.97;101487.53;5015158;28;20075;-91
2024/04/07 00:07:44;;;;;;;0.20;0.20;;;;;;;20.60;47.29;101492.69;5031222;28;20029;-93
2024/04/07 00:10:10;;;;;;;0.20;0.20;;;;;;;20.55;47.79;101493.06;5014826;28;20179;-93
2024/04/07 00:12:36;;;;;;;0.10;0.10;;;;;;;20.37;48.77;101483.06;5031487;28;20104;-92
2024/04/07 00:15:02;;;;;;;0.10;0.10;;;;;;;20.38;48.42;101487.38;5014656;28;20049;-92
2024/04/07 00:17:27;;;;;;;0.10;0.10;;;;;;;20.38;48.09;101482.97;5031114;28;20091;-92
2024/04/07 00:19:53;;;;;;;0.10;0.10;;;;;;;20.37;47.98;101478.66;5014708;28;20124;-92
2024/04/07 00:22:18;;;;;;;0.20;0.20;;;;;;;20.37;47.89;101480.44;5014461;28;20506;-91
2024/04/07 00:24:44;;;;;;;0.10;0.10;;;;;;;20.40;47.42;101482.84;4998239;28;20079;-91
2024/04/07 00:27:09;;;;;;;0.20;0.20;;;;;;;20.30;47.89;101486.16;5014885;28;20163;-92
2024/04/07 00:29:35;;;;;;;0.10;0.10;;;;;;;20.29;48.60;101492.38;5014735;28;20025;-93
2024/04/07 00:32:00;;;;;;;0.10;0.10;;;;;;;20.28;49.00;101488.06;5014250;28;20030;-92
2024/04/07 00:34:26;;;;;;;0.10;0.10;;;;;;;20.28;49.55;101493.34;5030584;28;20050;-92
2024/04/07 00:36:51;;;;;;;0.17;0.17;;;;;;;20.23;49.79;101489.38;4998193;28;20033;-91
2024/04/07 00:39:17;;;;;;;0.10;0.10;;;;;;;20.19;49.85;101493.19;5014740;28;20414;-92
2024/04/07 00:41:43;;;;;;;0.10;0.10;;;;;;;20.16;49.87;101489.00;5014521;28;20029;-92
2024/04/07 00:44:08;;;;;;;0.15;0.15;;;;;;;20.11;49.69;101487.69;5014237;28;20079;-93
2024/04/07 00:46:34;;;;;;;0.10;0.10;;;;;;;20.07;49.15;101500.22;5031383;28;20079;-92
2024/04/07 00:49:00;;;;;;;0.20;0.20;;;;;;;19.88;50.02;101511.25;5014524;28;20083;-92
2024/04/07 00:51:26;;;;;;;0.10;0.10;;;;;;;19.83;49.87;101508.09;5030885;28;20492;-92
2024/04/07 00:53:51;;;;;;;0.20;0.20;;;;;;;19.85;50.27;101492.25;5031182;28;20032;-91
2024/04/07 00:56:17;;;;;;;0.20;0.20;;;;;;;19.89;50.73;101502.41;5031291;28;20034;-91
2024/04/07 00:58:42;;;;;;;0.10;0.10;;;;;;;19.94;50.29;101504.69;4998123;28;20061;-93
2024/04/07 01:01:08;;;;;;;0.10;0.10;;;;;;;19.84;50.13;101477.44;5014050;28;20075;-94
2024/04/07 01:03:33;;;;;;;0.20;0.20;;;;;;;19.91;50.04;101504.91;5030825;28;20053;-92
2024/04/07 01:05:59;;;;;;;0.10;0.10;;;;;;;19.75;50.01;101489.44;5014100;28;20057;-92
2024/04/07 01:08:24;;;;;;;0.10;0.10;;;;;;;19.72;51.15;101493.16;5031886;28;20053;-92
2024/04/07 01:10:51;;;;;;;0.10;0.10;;;;;;;19.76;51.90;101502.50;5013988;28;20026;-90
2024/04/07 01:13:16;;;;;;;0.20;0.20;;;;;;;19.74;52.49;101509.63;4997523;28;20044;-90
2024/04/07 01:15:42;;;;;;;0.20;0.20;;;;;;;19.77;52.45;101508.59;5013861;28;20033;-92
2024/04/07 01:18:07;;;;;;;0.20;0.20;;;;;;;19.80;52.03;101497.00;5030650;28;20556;-91
2024/04/07 01:20:33;;;;;;;0.10;0.10;;;;;;;19.83;51.63;101497.59;5013674;28;20048;-92
2024/04/07 01:22:59;;;;;;;0.10;0.10;;;;;;;19.77;52.20;101498.06;5014133;28;20057;-91
2024/04/07 01:25:25;;;;;;;0.10;0.10;;;;;;;19.72;52.41;101501.03;5014144;28;20473;-91
2024/04/07 01:28:01;;;;;;;0.10;0.10;;;;;;;19.71;52.54;101504.59;5013842;28;20473;-92
2024/04/07 01:30:27;;;;;;;0.10;0.10;;;;;;;19.66;52.27;101501.47;5014593;28;20030;-92
2024/04/07 01:32:52;;;;;;;0.10;0.10;;;;;;;19.72;52.09;101501.03;5014150;28;20510;-91
2024/04/07 01:35:18;;;;;;;0.10;0.10;;;;;;;19.68;51.67;101485.63;5013935;28;20111;-92
2024/04/07 01:37:45;;;;;;;0.10;0.10;;;;;;;19.69;51.57;101484.69;4997802;28;20029;-92
2024/04/07 01:40:10;;;;;;;0.10;0.10;;;;;;;19.69;51.86;101487.31;5016156;28;20030;-92
2024/04/07 01:42:36;;;;;;;0.10;0.10;;;;;;;19.66;51.92;101490.97;5018001;28;20037;-92
2024/04/07 01:45:03;;;;;;;0.10;0.10;;;;;;;19.60;52.30;101482.72;5033890;28;20068;-92
2024/04/07 01:47:29;;;;;;;0.10;0.10;;;;;;;19.62;52.31;101494.78;5001287;28;20025;-92
2024/04/07 01:49:54;;;;;;;0.20;0.20;;;;;;;19.58;52.61;101498.59;5017808;28;20040;-91
2024/04/07 01:52:20;;;;;;;0.10;0.10;;;;;;;19.59;52.26;101491.53;5001082;28;20123;-92
2024/04/07 01:54:45;;;;;;;0.10;0.10;;;;;;;19.56;52.65;101479.47;5017389;28;20029;-91
2024/04/07 01:57:11;;;;;;;0.20;0.20;;;;;;;19.66;52.74;101485.72;5034950;28;20036;-92
2024/04/07 01:59:37;;;;;;;0.10;0.10;;;;;;;19.62;53.04;101499.19;5017074;28;20030;-91
2024/04/07 02:02:03;;;;;;;0.10;0.10;;;;;;;19.61;53.23;101498.34;5001224;28;20442;-91
2024/04/07 02:04:28;;;;;;;0.20;0.20;;;;;;;19.60;53.15;101495.84;5000916;28;20479;-92
2024/04/07 02:06:54;;;;;;;0.10;0.10;;;;;;;19.58;53.29;101495.13;5017277;28;20494;-92
2024/04/07 02:09:20;;;;;;;0.10;0.10;;;;;;;19.60;53.72;101493.22;5001080;28;20025;-92
2024/04/07 02:11:46;;;;;;;0.20;0.20;;;;;;;19.50;54.48;101493.03;5033772;28;20037;-90
2024/04/07 02:14:12;;;;;;;0.10;0.10;;;;;;;19.37;55.96;101489.59;5017179;28;20026;-92
2024/04/07 02:16:37;;;;;;;0.10;0.10;;;;;;;19.20;56.12;101491.66;5017356;28;20501;-92
2024/04/07 02:19:03;;;;;;;0.10;0.10;;;;;;;19.16;56.84;101476.22;5033429;28;20495;-91
2024/04/07 02:21:28;;;;;;;0.10;0.10;;;;;;;19.15;57.34;101482.44;5033502;28;20033;-92
2024/04/07 02:23:54;;;;;;;0.20;0.20;;;;;;;19.07;56.98;101475.09;5016920;28;20365;-92
2024/04/07 02:26:20;;;;;;;0.20;0.20;;;;;;;19.18;57.30;101490.94;5033494;28;20079;-93
2024/04/07 02:28:45;;;;;;;0.20;0.20;;;;;;;19.24;58.75;101509.78;5000109;28;20065;-92
2024/04/07 02:31:11;;;;;;;0.10;0.10;;;;;;;19.20;59.01;101504.78;5017118;28;20018;-91
2024/04/07 02:33:38;;;;;;;0.20;0.20;;;;;;;19.27;59.07;101518.31;5016709;28;20029;-91
2024/04/07 02:36:03;;;;;;;0.10;0.10;;;;;;;19.14;60.02;101514.84;5000463;28;20410;-92
2024/04/07 02:38:29;;;;;;;0.17;0.17;;;;;;;19.17;59.81;101514.63;5016737;28;20037;-92
2024/04/07 02:40:55;;;;;;;0.20;0.20;;;;;;;19.10;59.39;101519.50;5000301;28;20084;-91
2024/04/07 02:43:20;;;;;;;0.10;0.10;;;;;;;19.04;58.59;101514.66;5033019;28;20025;-93
2024/04/07 02:48:30;;;;;;;0.10;0.10;;;;;;;19.10;58.72;101529.13;5033166;28;20083;-91
2024/04/07 02:50:57;;;;;;;0.10;0.10;;;;;;;19.06;59.08;101519.78;5031704;28;20033;-92
2024/04/07 02:53:23;;;;;;;0.10;0.10;;;;;;;18.96;59.28;101518.75;5016926;28;20030;-93
2024/04/07 02:55:49;;;;;;;0.10;0.10;;;;;;;18.87;59.39;101510.59;5016642;28;20490;-91
2024/04/07 02:58:14;;;;;;;0.10;0.10;;;;;;;18.76;61.21;101509.66;5032776;28;20084;-91
2024/04/07 03:00:40;;;;;;;0.10;0.10;;;;;;;18.62;61.74;101502.72;5032761;28;20036;-91
2024/04/07 03:03:06;;;;;;;0.20;0.20;;;;;;;18.61;61.41;101507.13;5032757;28;20026;-92
2024/04/07 03:05:31;;;;;;;0.15;0.15;;;;;;;18.80;60.52;101513.78;5033734;28;20494;-92
2024/04/07 03:07:57;;;;;;;0.10;0.10;;;;;;;18.82;60.12;101532.84;5032575;28;20032;-93
2024/04/07 03:10:22;;;;;;;0.10;0.10;;;;;;;18.80;59.68;101521.63;5000124;28;20087;-93
2024/04/07 03:12:48;;;;;;;0.10;0.10;;;;;;;18.73;60.12;101530.84;5032373;28;20120;-91
2024/04/07 03:15:13;;;;;;;0.10;0.10;;;;;;;18.71;60.36;101532.75;5016015;28;20407;-92
2024/04/07 03:17:39;;;;;;;0.10;0.10;;;;;;;18.65;59.94;101525.28;5016736;28;20490;-93
2024/04/07 03:20:05;;;;;;;0.10;0.10;;;;;;;18.63;59.70;101528.84;4999909;28;20026;-92
2024/04/07 03:22:31;;;;;;;0.10;0.10;;;;;;;18.66;59.91;101529.59;5015654;28;20021;-92
2024/04/07 03:24:56;;;;;;;0.10;0.10;;;;;;;18.65;59.20;101533.16;5032240;28;20025;-92
2024/04/07 03:27:22;;;;;;;0.10;0.10;;;;;;;18.59;59.71;101534.41;5032390;28;20034;-92
2024/04/07 03:29:48;;;;;;;0.10;0.10;;;;;;;18.57;59.70;101537.09;5015649;28;20491;-92
2024/04/07 03:32:13;;;;;;;0.10;0.10;;;;;;;18.61;59.86;101541.22;5015721;28;20056;-91
2024/04/07 03:34:39;;;;;;;0.10;0.10;;;;;;;18.51;59.31;101521.81;5015194;28;20057;-91
2024/04/07 03:37:07;;;;;;;0.10;0.10;;;;;;;18.69;59.21;101540.72;5031934;28;20060;-91
2024/04/07 03:39:33;;;;;;;0.20;0.20;;;;;;;18.72;58.90;101550.16;4999779;28;20087;-92
2024/04/07 03:41:58;;;;;;;0.10;0.10;;;;;;;18.74;59.33;101554.34;5015398;28;20025;-92
2024/04/07 03:44:25;;;;;;;0.20;0.20;;;;;;;18.69;59.64;101553.00;5031725;28;20552;-92
2024/04/07 03:46:51;;;;;;;0.20;0.20;;;;;;;18.70;59.41;101563.38;5015653;28;20025;-91
2024/04/07 03:49:17;;;;;;;0.20;0.20;;;;;;;18.73;59.67;101546.59;4999163;28;20021;-93
2024/04/07 03:51:42;;;;;;;0.10;0.10;;;;;;;18.67;59.43;101554.84;4999259;28;20513;-91
2024/04/07 03:54:08;;;;;;;0.20;0.20;;;;;;;18.62;58.82;101535.03;5031518;28;20025;-92
2024/04/07 03:56:33;;;;;;;0.10;0.10;;;;;;;18.67;58.72;101549.59;5031566;28;20388;-93
2024/04/07 03:58:59;;;;;;;0.10;0.10;;;;;;;18.63;58.99;101552.41;5015324;28;20033;-91
2024/04/07 04:01:25;;;;;;;0.20;0.20;;;;;;;18.69;58.90;101560.84;5015108;28;20029;-92
2024/04/07 04:03:50;;;;;;;0.10;0.10;;;;;;;18.60;59.40;101547.41;5014607;28;20029;-92
2024/04/07 04:06:16;;;;;;;0.10;0.10;;;;;;;18.57;59.68;101558.06;5032212;28;20466;-91
2024/04/07 04:08:41;;;;;;;0.10;0.10;;;;;;;18.53;59.73;101555.78;5031482;28;20029;-91
2024/04/07 04:11:07;;;;;;;0.10;0.10;;;;;;;18.46;60.27;101554.50;5031649;28;20029;-91
2024/04/07 04:13:35;;;;;;;0.10;0.10;;;;;;;18.35;61.06;101556.06;5031468;28;20030;-92
2024/04/07 04:16:01;;;;;;;0.15;0.15;;;;;;;18.30;61.19;101550.31;5014759;28;20112;-91
2024/04/07 04:18:27;;;;;;;0.10;0.10;;;;;;;18.24;61.38;101555.94;5032661;28;20065;-92
2024/04/07 04:20:53;;;;;;;0.10;0.10;;;;;;;18.21;62.00;101561.38;5015110;28;20034;-92
2024/04/07 04:23:18;;;;;;;0.10;0.10;;;;;;;18.27;61.82;101567.97;5014486;28;20079;-92
2024/04/07 04:25:51;;;;;;;0.10;0.10;;;;;;;18.23;61.65;101563.91;5031457;28;20068;-92
2024/04/07 04:28:17;;;;;;;0.10;0.10;;;;;;;18.20;61.03;101577.22;5031039;28;20490;-93
2024/04/07 04:30:51;;;;;;;0.10;0.10;;;;;;;18.00;61.32;101540.06;5014739;28;20045;-92
2024/04/07 04:33:17;;;;;;;0.10;0.10;;;;;;;18.28;62.32;101578.34;5032344;28;20033;-92
2024/04/07 04:35:42;;;;;;;0.10;0.10;;;;;;;18.12;62.57;101554.13;5014318;28;20411;-92
2024/04/07 04:38:08;;;;;;;0.10;0.10;;;;;;;18.15;63.36;101567.00;5031815;28;20075;-92
2024/04/07 04:40:34;;;;;;;0.10;0.10;;;;;;;17.94;64.08;101571.88;4998561;28;20087;-92
2024/04/07 04:42:59;;;;;;;0.10;0.10;;;;;;;17.87;64.08;101562.72;5014764;28;20033;-92
2024/04/07 04:45:25;;;;;;;0.10;0.10;;;;;;;17.86;64.11;101574.16;4998519;28;20370;-92
2024/04/07 04:47:50;;;;;;;0.10;0.10;;;;;;;17.90;63.70;101566.94;4998292;28;20548;-92
2024/04/07 04:50:16;;;;;;;0.10;0.10;;;;;;;17.98;62.98;101564.66;5014801;28;20026;-92
2024/04/07 04:52:41;;;;;;;0.10;0.10;;;;;;;17.95;63.17;101576.16;5014237;28;20096;-91
2024/04/07 04:55:07;;;;;;;0.10;0.10;;;;;;;17.89;62.58;101560.84;5014504;28;20406;-91
2024/04/07 04:57:32;;;;;;;0.10;0.10;;;;;;;17.93;62.07;101585.91;5031053;28;20518;-91
2024/04/07 04:59:58;;;;;;;0.10;0.10;;;;;;;17.85;63.02;101593.41;5014684;28;20045;-92
2024/04/07 05:02:24;;;;;;;0.10;0.10;;;;;;;17.82;63.38;101585.75;5014641;28;20033;-92
2024/04/07 05:04:52;;;;;;;0.10;0.10;;;;;;;17.85;63.19;101605.66;5013958;28;20040;-91
2024/04/07 05:07:18;;;;;;;0.10;0.10;;;;;;;17.68;63.54;101580.53;4997874;28;20032;-92
2024/04/07 05:09:48;;;;;;;0.10;0.10;;;;;;;17.59;64.29;101575.88;5030936;28;20453;-92
2024/04/07 05:12:14;;;;;;;0.20;0.20;;;;;;;17.76;64.18;101602.69;5030687;28;20028;-92
2024/04/07 05:14:39;;;;;;;0.10;0.10;;;;;;;17.82;64.38;101609.31;4999210;28;20406;-92
2024/04/07 05:17:05;;;;;;;0.10;0.10;;;;;;;17.79;65.07;101617.34;5018653;28;20037;-92
2024/04/07 05:19:30;;;;;;;0.10;0.10;;;;;;;17.89;64.50;101623.69;5001985;28;20029;-91
2024/04/07 05:21:56;;;;;;;0.10;0.10;;;;;;;17.83;64.50;101613.63;5034390;28;20134;-91
2024/04/07 05:24:21;;;;;;;0.20;0.20;;;;;;;17.82;64.92;101617.19;5018129;28;20518;-92
2024/04/07 05:26:48;;;;;;;0.10;0.10;;;;;;;17.86;65.41;101617.81;5034463;28;20033;-92
2024/04/07 05:29:13;;;;;;;0.20;0.20;;;;;;;17.86;65.86;101617.81;5034718;28;20030;-92
2024/04/07 05:31:39;;;;;;;0.20;0.20;;;;;;;18.01;65.12;101612.44;5018241;28;20029;-92
2024/04/07 05:34:05;;;;;;;0.10;0.10;;;;;;;18.09;64.96;101613.69;5017781;28;20553;-92
2024/04/07 05:36:31;;;;;;;0.10;0.10;;;;;;;18.13;65.46;101604.72;5034097;28;20044;-92
2024/04/07 05:38:56;;;;;;;0.10;0.10;;;;;;;18.16;65.35;101602.75;5018101;28;20030;-92
2024/04/07 05:41:22;;;;;;;0.10;0.10;;;;;;;18.29;64.73;101594.94;5034426;28;20030;-92
2024/04/07 05:43:47;;;;;;;0.10;0.10;;;;;;;18.33;64.62;101585.91;5018474;28;20490;-92
2024/04/07 05:46:13;;;;;;;0.10;0.10;;;;;;;18.33;64.25;101580.69;5034725;28;20469;-92
2024/04/07 05:48:38;;;;;;;0.20;0.20;;;;;;;18.42;63.61;101603.66;5034248;28;20659;-91
2024/04/07 05:51:11;;;;;;;0.10;0.10;;;;;;;18.38;61.36;101599.53;5017493;28;20033;-90
2024/04/07 05:53:37;;;;;;;0.10;0.10;;;;;;;18.42;61.19;101608.91;5017545;28;20030;-93
2024/04/07 05:56:03;;;;;;;0.20;0.20;;;;;;;18.49;60.51;101610.16;5034208;28;20563;-92
2024/04/07 05:58:28;;;;;;;0.10;0.10;;;;;;;18.60;59.90;101606.84;5034043;28;20024;-94
2024/04/07 06:00:54;;;;;;;0.10;0.10;;;;;;;18.68;59.19;101606.31;5017302;28;20040;-91
2024/04/07 06:03:19;;;;;;;0.10;0.10;;;;;;;18.75;58.28;101612.84;5017332;28;20041;-92
2024/04/07 06:05:45;;;;;;;0.13;0.13;;;;;;;18.76;58.42;101609.28;5017129;28;20029;-92
2024/04/07 06:08:10;;;;;;;0.10;0.10;;;;;;;18.77;58.26;101619.66;5000989;28;20033;-91
2024/04/07 06:10:36;;;;;;;0.10;0.10;;;;;;;18.85;58.43;101616.50;5017315;28;20026;-91
2024/04/07 06:13:04;;;;;;;0.10;0.10;;;;;;;18.85;58.51;101621.75;5033922;28;20039;-93
2024/04/07 06:15:30;;;;;;;0.20;0.20;;;;;;;18.88;58.65;101621.56;5001134;28;20037;-92
2024/04/07 06:17:55;;;;;;;0.20;0.20;;;;;;;18.91;59.00;101618.72;5017328;28;20041;-92
2024/04/07 06:20:21;;;;;;;0.13;0.13;;;;;;;18.82;58.79;101603.63;5033532;28;20033;-91
2024/04/07 06:22:46;;;;;;;0.20;0.20;;;;;;;19.04;58.26;101624.81;5033462;28;20316;-91
2024/04/07 06:25:12;;;;;;;0.20;0.20;;;;;;;19.00;58.39;101628.59;5034453;28;20501;-91
2024/04/07 06:27:37;;;;;;;0.15;0.15;;;;;;;19.04;58.10;101637.09;5033541;28;20061;-90
2024/04/07 06:30:04;;;;;;;0.20;0.20;;;;;;;19.07;58.33;101635.06;5017169;28;20029;-92
2024/04/07 06:32:29;;;;;;;0.20;0.20;;;;;;;19.08;58.08;101644.66;5016810;28;20034;-91
2024/04/07 06:34:56;;;;;;;0.15;0.15;;;;;;;19.03;58.21;101641.50;5016194;28;20167;-91
2024/04/07 06:37:22;;;;;;;0.20;0.20;;;;;;;19.05;58.60;101646.63;5000477;28;20513;-93
2024/04/07 06:39:47;;;;;;;0.15;0.15;;;;;;;19.12;58.86;101643.47;5017129;28;20033;-91
2024/04/07 06:42:13;;;;;;;0.20;0.20;;;;;;;19.29;58.30;101654.59;5033199;28;20033;-92
2024/04/07 06:44:38;;;;;;;0.20;0.20;;;;;;;19.14;58.06;101625.00;5000105;28;20051;-92
2024/04/07 06:47:05;;;;;;;0.15;0.15;;;;;;;19.35;57.64;101656.78;5033287;28;20471;-91
2024/04/07 06:49:31;;;;;;;0.20;0.20;;;;;;;19.40;57.93;101658.16;5016525;28;20108;-91
2024/04/07 06:51:58;;;;;;;0.10;0.10;;;;;;;19.46;57.86;101657.72;5034018;28;20057;-92
2024/04/07 06:54:23;;;;;;;0.13;0.13;;;;;;;19.67;58.47;101665.09;5016475;28;20124;-91
2024/04/07 06:56:49;;;;;;;0.20;0.20;;;;;;;19.74;58.42;101661.88;4999958;28;20521;-92
2024/04/07 06:59:15;;;;;;;0.20;0.20;;;;;;;19.85;57.61;101668.16;5016131;28;20030;-92
2024/04/07 07:01:40;;;;;;;0.10;0.10;;;;;;;19.88;57.59;101662.72;4999936;28;20037;-91
2024/04/07 07:04:06;;;;;;;0.20;0.20;;;;;;;20.04;57.32;101666.72;5016063;28;20036;-91
2024/04/07 07:06:31;;;;;;;0.10;0.10;;;;;;;20.14;56.63;101674.78;5016321;28;20029;-91
2024/04/07 07:08:57;;;;;;;0.10;0.10;;;;;;;20.07;56.23;101670.13;5016063;28;20108;-91
2024/04/07 07:11:23;;;;;;;0.20;0.20;;;;;;;20.22;55.79;101682.13;5016626;28;20061;-90
2024/04/07 07:13:52;;;;;;;0.10;0.10;;;;;;;20.23;55.85;101679.38;5016261;28;20475;-93
2024/04/07 07:16:18;;;;;;;0.15;0.15;;;;;;;20.22;55.88;101675.06;5032517;28;20041;-92
2024/04/07 07:18:43;;;;;;;0.20;0.20;;;;;;;20.31;55.69;101687.53;4999615;28;20029;-93
2024/04/07 07:21:09;;;;;;;0.20;0.20;;;;;;;20.43;55.51;101695.50;5016108;28;20033;-93
2024/04/07 07:23:35;;;;;;;0.20;0.20;;;;;;;20.48;54.79;101688.13;5016287;28;20057;-91
2024/04/07 07:26:02;;;;;;;0.15;0.15;;;;;;;20.54;54.78;101698.19;5015896;28;20033;-93
2024/04/07 07:28:29;;;;;;;0.20;0.20;;;;;;;20.59;54.60;101693.44;4999590;28;20056;-91
2024/04/07 07:30:54;;;;;;;0.20;0.20;;;;;;;20.67;54.17;101693.72;5016040;28;20083;-91
2024/04/07 07:33:20;;;;;;;0.13;0.13;;;;;;;20.69;53.85;101702.31;5015536;28;20029;-92
2024/04/07 07:35:46;;;;;;;0.20;0.20;;;;;;;20.55;54.08;101682.31;5015603;28;20045;-92
2024/04/07 07:38:12;;;;;;;0.20;0.20;;;;;;;20.80;53.31;101691.81;5031468;28;20104;-92
2024/04/07 07:40:37;;;;;;;0.20;0.20;;;;;;;20.82;53.41;101696.97;5031997;28;20029;-92
2024/04/07 07:43:03;;;;;;;0.10;0.10;;;;;;;20.82;53.83;101697.81;5015259;28;20028;-91
2024/04/07 07:45:29;;;;;;;0.20;0.20;;;;;;;20.95;53.76;101697.75;5016576;28;20033;-92
2024/04/07 07:47:55;;;;;;;0.10;0.10;;;;;;;20.95;53.51;101681.13;5015538;28;20029;-92
2024/04/07 07:50:20;;;;;;;0.20;0.20;;;;;;;21.15;53.43;101699.69;5032088;28;20025;-93
2024/04/07 07:52:46;;;;;;;0.20;0.20;;;;;;;21.15;53.60;101707.59;5015505;28;20033;-92
2024/04/07 07:55:12;;;;;;;0.10;0.10;;;;;;;21.10;53.41;101693.09;5015300;28;20409;-92
2024/04/07 07:57:38;;;;;;;0.20;0.20;;;;;;;21.26;53.63;101698.03;5031542;28;20036;-91
2024/04/07 08:00:05;;;;;;;0.20;0.20;;;;;;;21.25;53.05;101699.81;5015416;28;20625;-92
2024/04/07 08:02:31;;;;;;;0.20;0.20;;;;;;;21.30;53.14;101702.94;5031336;28;20483;-91
2024/04/07 08:04:57;;;;;;;0.20;0.20;;;;;;;21.34;53.45;101704.41;5031541;28;20407;-90
2024/04/07 08:07:22;;;;;;;0.10;0.10;;;;;;;21.40;53.41;101701.28;5015345;28;20029;-91
2024/04/07 08:09:48;;;;;;;0.20;0.20;;;;;;;21.38;53.27;101705.84;5014987;28;20034;-91
2024/04/07 08:12:14;;;;;;;0.20;0.20;;;;;;;21.29;53.01;101685.50;5015056;28;20056;-92
2024/04/07 08:14:40;;;;;;;0.17;0.17;;;;;;;21.44;52.82;101709.81;5032333;28;20032;-92
2024/04/07 08:17:06;;;;;;;0.20;0.20;;;;;;;21.52;52.16;101706.53;4998351;28;20025;-91
2024/04/07 08:19:31;;;;;;;0.20;0.20;;;;;;;21.63;51.06;101703.91;5015320;28;20092;-91
2024/04/07 08:21:57;;;;;;;0.20;0.20;;;;;;;21.83;51.22;101695.31;5031899;28;20025;-91
2024/04/07 08:24:23;;;;;;;0.10;0.10;;;;;;;22.13;50.54;101709.66;5031190;28;20453;-92
2024/04/07 08:26:48;;;;;;;0.20;0.20;;;;;;;22.27;50.46;101701.44;5031081;28;20486;-92
2024/04/07 08:29:14;;;;;;;0.20;0.20;;;;;;;22.63;49.76;101715.22;5031389;28;20518;-91
2024/04/07 08:31:39;;;;;;;0.20;0.20;;;;;;;22.76;48.84;101697.41;4998156;28;20029;-90
2024/04/07 08:34:05;;;;;;;0.20;0.20;;;;;;;23.04;48.29;101710.00;5031969;28;20056;-92
2024/04/07 08:36:30;;;;;;;0.20;0.20;;;;;;;23.18;48.43;101707.00;5014556;28;20029;-93
2024/04/07 08:38:56;;;;;;;0.20;0.20;;;;;;;23.35;47.45;101707.38;4998313;28;20029;-92
2024/04/07 08:41:21;;;;;;;0.20;0.20;;;;;;;23.61;46.59;101706.00;5014778;28;20056;-92
2024/04/07 08:43:48;;;;;;;0.20;0.20;;;;;;;23.84;45.30;101719.00;5014230;28;20498;-92
2024/04/07 08:46:14;;;;;;;0.20;0.20;;;;;;;23.83;45.48;101718.16;5014162;28;20396;-91
2024/04/07 08:48:50;;;;;;;0.20;0.20;;;;;;;24.01;45.01;101719.19;5014366;28;20469;-91
2024/04/07 08:51:16;;;;;;;0.20;0.20;;;;;;;24.21;44.89;101720.06;5015560;28;20087;-92
2024/04/07 08:53:41;;;;;;;0.20;0.20;;;;;;;24.16;40.67;101714.34;5014407;28;20093;-91
2024/04/07 08:56:07;;;;;;;0.20;0.20;;;;;;;24.36;41.05;101724.97;5030576;28;20109;-92
2024/04/07 08:58:34;;;;;;;0.20;0.20;;;;;;;24.41;39.39;101722.75;5014009;28;20542;-91
2024/04/07 09:01:00;;;;;;;0.20;0.20;;;;;;;24.39;39.57;101719.41;5014459;28;20167;-92
2024/04/07 09:03:26;;;;;;;0.20;0.20;;;;;;;24.45;39.71;101718.84;5014166;28;20021;-91
2024/04/07 09:05:51;;;;;;;0.20;0.20;;;;;;;24.47;39.54;101708.97;5030731;28;20037;-92
2024/04/07 09:08:18;;;;;;;0.20;0.20;;;;;;;24.63;40.20;101722.47;5014292;28;20041;-91
2024/04/07 09:10:43;;;;;;;0.20;0.20;;;;;;;24.68;40.54;101725.56;5014583;28;20039;-91
2024/04/07 09:13:09;;;;;;;0.20;0.20;;;;;;;24.87;38.37;101728.16;5013716;28;20025;-91
2024/04/07 09:15:34;;;;;;;0.20;0.20;;;;;;;25.12;38.85;101736.50;5014294;28;20032;-92
2024/04/07 09:18:00;;;;;;;0.20;0.20;;;;;;;25.18;38.02;101730.66;5030798;28;20026;-92
2024/04/07 09:20:25;;;;;;;0.20;0.20;;;;;;;25.13;38.57;101730.25;4997962;28;20029;-92
2024/04/07 09:22:51;;;;;;;0.20;0.20;;;;;;;24.98;37.93;101716.59;5013980;28;20495;-92
2024/04/07 09:25:17;;;;;;;0.20;0.20;;;;;;;25.10;37.59;101731.38;5030290;28;20029;-92
2024/04/07 09:27:42;;;;;;;0.17;0.17;;;;;;;24.99;37.01;101712.97;5030167;28;20034;-91
2024/04/07 09:30:08;;;;;;;0.20;0.20;;;;;;;24.88;35.69;101732.50;5015911;28;20466;-91
2024/04/07 09:32:35;;;;;;;0.20;0.20;;;;;;;24.81;35.59;101735.84;5030810;28;20037;-92
2024/04/07 09:35:01;;;;;;;0.20;0.20;;;;;;;24.69;35.56;101721.94;5030304;28;20522;-92
2024/04/07 09:37:28;;;;;;;0.20;0.20;;;;;;;24.64;36.36;101740.00;5030401;28;20022;-91
2024/04/07 09:39:54;;;;;;;0.20;0.20;;;;;;;24.56;35.81;101753.09;4997826;28;20033;-91
2024/04/07 09:42:20;;;;;;;0.20;0.20;;;;;;;24.46;36.49;101747.81;5013628;28;20037;-93
2024/04/07 09:44:46;;;;;;;0.20;0.20;;;;;;;24.19;36.44;101753.75;4997859;28;20040;-92
2024/04/07 09:47:13;;;;;;;0.15;0.15;;;;;;;24.18;36.67;101754.69;5030509;28;20068;-92
2024/04/07 09:49:40;;;;;;;0.10;0.10;;;;;;;24.18;37.21;101765.25;5015356;28;20045;-93
2024/04/07 09:52:07;;;;;;;0.20;0.20;;;;;;;24.16;37.56;101769.03;5013874;28;20029;-93
2024/04/07 09:54:40;;;;;;;0.20;0.20;;;;;;;24.14;38.40;101769.16;5013639;28;20022;-92
2024/04/07 09:57:09;;;;;;;0.20;0.20;;;;;;;24.15;38.02;101775.28;5030255;28;20510;-92
2024/04/07 09:59:38;;;;;;;0.13;0.13;;;;;;;24.03;39.36;101769.28;5030280;28;20117;-92
2024/04/07 10:02:04;;;;;;;0.20;0.20;;;;;;;24.03;38.73;101772.75;5000997;28;20021;-92
2024/04/07 10:04:33;;;;;;;0.20;0.20;;;;;;;24.07;38.38;101778.59;5016912;28;20026;-91
2024/04/07 10:07:00;;;;;;;0.20;0.20;;;;;;;24.08;38.91;101774.97;5017695;28;20037;-93
2024/04/07 10:09:26;;;;;;;0.20;0.20;;;;;;;24.05;38.25;101769.97;5017419;28;20036;-92
2024/04/07 10:11:52;;;;;;;0.20;0.20;;;;;;;23.94;38.81;101778.00;5017053;28;20034;-93
2024/04/07 10:14:18;;;;;;;0.10;0.10;;;;;;;23.85;38.38;101777.00;5017207;28;20041;-92
2024/04/07 10:16:45;;;;;;;0.20;0.20;;;;;;;23.79;38.88;101763.47;5033631;28;20037;-92
2024/04/07 10:19:12;;;;;;;0.20;0.20;;;;;;;23.84;39.08;101777.13;5017654;28;20036;-93
2024/04/07 10:21:38;;;;;;;0.20;0.20;;;;;;;24.02;38.47;101780.81;5017287;28;20079;-93
2024/04/07 10:24:04;;;;;;;0.20;0.20;;;;;;;24.25;37.86;101773.50;5017210;28;20041;-92
2024/04/07 10:26:30;;;;;;;0.20;0.20;;;;;;;24.69;37.21;101777.50;5033256;28;20525;-92
2024/04/07 10:28:58;;;;;;;0.10;0.10;;;;;;;24.65;35.88;101778.72;5000696;28;20057;-92
2024/04/07 10:31:27;;;;;;;0.20;0.20;;;;;;;24.63;35.96;101782.50;5018127;28;20033;-92
2024/04/07 10:33:53;;;;;;;0.20;0.20;;;;;;;24.59;36.21;101784.59;5033295;28;20057;-94
2024/04/07 10:36:20;;;;;;;0.20;0.20;;;;;;;24.68;36.17;101791.69;5016475;28;20025;-92
2024/04/07 10:38:51;;;;;;;0.20;0.20;;;;;;;24.76;36.64;101791.81;5017512;28;20043;-92
2024/04/07 10:41:26;;;;;;;0.20;0.20;;;;;;;24.73;36.43;101783.34;5017342;28;20029;-91
2024/04/07 10:43:52;;;;;;;0.20;0.20;;;;;;;24.70;35.89;101789.75;5001345;28;20268;-93
2024/04/07 10:46:19;;;;;;;0.20;0.20;;;;;;;24.71;36.80;101793.22;5016704;28;20112;-94
2024/04/07 10:48:45;;;;;;;0.20;0.20;;;;;;;24.63;36.83;101796.56;5016358;28;20041;-93
2024/04/07 10:51:12;;;;;;;0.20;0.20;;;;;;;24.61;37.25;101790.56;4999769;28;20030;-92
2024/04/07 10:53:41;;;;;;;0.20;0.20;;;;;;;24.60;37.72;101786.25;5033105;28;20171;-92
2024/04/07 10:56:07;;;;;;;0.20;0.20;;;;;;;24.75;37.45;101800.72;5016332;28;20040;-93
2024/04/07 10:58:33;;;;;;;0.20;0.20;;;;;;;24.71;37.36;101798.50;5016557;28;20069;-94
2024/04/07 11:00:59;;;;;;;0.20;0.20;;;;;;;24.69;37.45;101801.31;5016563;28;20029;-92
2024/04/07 11:03:25;;;;;;;0.20;0.20;;;;;;;24.41;37.65;101786.22;5015867;28;20577;-92
2024/04/07 11:05:51;;;;;;;0.20;0.20;;;;;;;24.37;37.69;101793.59;5016342;28;20091;-92
2024/04/07 11:08:17;;;;;;;0.20;0.20;;;;;;;24.35;38.56;101802.63;5016618;28;20064;-92
2024/04/07 11:10:42;;;;;;;0.17;0.17;;;;;;;24.23;39.33;101801.88;5032276;28;20064;-92
2024/04/07 11:13:08;;;;;;;0.20;0.20;;;;;;;24.15;39.48;101799.91;5015245;28;20077;-92
2024/04/07 11:15:34;;;;;;;0.20;0.20;;;;;;;24.11;39.87;101801.16;5016291;28;20064;-93
2024/04/07 11:17:59;;;;;;;0.20;0.20;;;;;;;24.13;39.80;101804.50;4999714;28;20026;-92
2024/04/07 11:20:25;;;;;;;0.20;0.20;;;;;;;24.10;40.34;101801.31;5016224;28;20479;-93